createdAt,value
2022-08-19T00:01:59.054Z,5.60
2022-08-19T00:04:28.834Z,5.72
2022-08-19T00:06:55.239Z,5.78
2022-08-19T00:09:22.492Z,5.82
2022-08-19T00:11:49.250Z,6.15
2022-08-19T00:14:16.232Z,5.85
2022-08-19T00:16:43.464Z,6.03
2022-08-19T00:19:09.942Z,6.18
2022-08-19T00:21:39.908Z,6.10
2022-08-19T00:24:09.889Z,5.93
2022-08-19T00:26:36.854Z,6.07
2022-08-19T00:29:03.924Z,5.80
2022-08-19T00:31:31.448Z,6.15
2022-08-19T00:33:58.238Z,5.90
2022-08-19T00:36:24.556Z,5.85
2022-08-19T00:38:52.023Z,6.00
2022-08-19T00:41:20.824Z,5.97
2022-08-19T00:44:11.107Z,6.22
2022-08-19T00:46:39.076Z,6.53
2022-08-19T00:49:27.860Z,6.85
2022-08-19T00:52:08.892Z,7.47
2022-08-19T00:54:36.920Z,7.78
2022-08-19T00:57:05.068Z,8.18
2022-08-19T00:59:56.243Z,7.53
2022-08-19T01:02:29.058Z,7.87
2022-08-19T01:04:55.386Z,6.70
2022-08-19T01:07:22.334Z,5.75
2022-08-19T01:09:50.138Z,4.47
2022-08-19T01:12:16.756Z,3.58
2022-08-19T01:14:43.023Z,3.40
2022-08-19T01:17:10.266Z,3.28
2022-08-19T01:19:43.562Z,3.67
2022-08-19T01:22:50.468Z,3.85
2022-08-19T01:25:18.939Z,4.90
2022-08-19T01:27:49.229Z,5.15
2022-08-19T01:30:18.389Z,5.53
2022-08-19T01:32:44.628Z,5.18
2022-08-19T01:35:15.854Z,5.45
2022-08-19T01:37:44.343Z,5.65
2022-08-19T01:40:11.199Z,5.45
2022-08-19T01:42:38.197Z,5.60
2022-08-19T01:45:06.058Z,5.22
2022-08-19T01:47:34.263Z,5.78
2022-08-19T01:50:00.591Z,5.35
2022-08-19T01:52:29.874Z,5.70
2022-08-19T01:54:56.289Z,5.50
2022-08-19T01:57:23.988Z,5.80
2022-08-19T01:59:50.807Z,5.75
2022-08-19T02:02:17.214Z,5.55
2022-08-19T02:04:43.692Z,5.78
2022-08-19T02:07:09.949Z,5.50
2022-08-19T02:09:36.193Z,5.68
2022-08-19T02:12:03.933Z,5.32
2022-08-19T02:14:33.878Z,5.95
2022-08-19T02:17:01.537Z,6.10
2022-08-19T02:19:28.154Z,6.82
2022-08-19T02:21:54.405Z,6.47
2022-08-19T02:24:20.660Z,6.70
2022-08-19T02:26:46.916Z,6.30
2022-08-19T02:29:13.195Z,6.37
2022-08-19T02:31:39.464Z,6.43
2022-08-19T02:34:05.758Z,6.85
2022-08-19T02:36:32.020Z,6.90
2022-08-19T02:38:58.338Z,7.50
2022-08-19T02:41:27.835Z,8.13
2022-08-19T02:44:26.437Z,6.72
2022-08-19T02:46:57.983Z,5.10
2022-08-19T02:49:24.526Z,4.68
2022-08-19T02:51:50.735Z,4.68
2022-08-19T02:54:16.964Z,4.35
2022-08-19T02:56:44.140Z,4.75
2022-08-19T02:59:11.557Z,4.53
2022-08-19T03:01:39.958Z,4.00
2022-08-19T03:04:06.927Z,3.97
2022-08-19T03:06:36.301Z,3.70
2022-08-19T03:09:02.897Z,3.70
2022-08-19T03:11:30.583Z,3.70
2022-08-19T03:13:57.128Z,3.80
2022-08-19T03:16:25.084Z,4.10
2022-08-19T03:18:51.910Z,4.15
2022-08-19T03:21:24.733Z,3.95
2022-08-19T03:23:54.135Z,3.72
2022-08-19T03:26:20.398Z,3.90
2022-08-19T03:28:51.637Z,3.80
2022-08-19T03:31:45.626Z,4.00
2022-08-19T03:34:27.883Z,4.20
2022-08-19T03:37:32.969Z,4.00
2022-08-19T03:39:59.368Z,3.47
2022-08-19T03:42:31.994Z,3.87
2022-08-19T03:45:07.529Z,3.87
2022-08-19T03:47:34.220Z,4.20
2022-08-19T03:50:00.980Z,3.58
2022-08-19T03:52:30.777Z,3.30
2022-08-19T03:54:57.263Z,3.20
2022-08-19T03:57:27.853Z,3.28
2022-08-19T04:00:03.952Z,3.12
2022-08-19T04:02:42.372Z,3.20
2022-08-19T04:05:09.523Z,3.20
2022-08-19T04:07:36.148Z,3.30
2022-08-19T04:10:03.808Z,3.25
2022-08-19T04:12:30.448Z,3.87
2022-08-19T04:14:57.210Z,3.85
2022-08-19T04:17:23.427Z,4.03
2022-08-19T04:19:49.708Z,4.05
2022-08-19T04:22:15.952Z,3.70
2022-08-19T04:24:42.266Z,4.00
2022-08-19T04:27:08.552Z,4.00
2022-08-19T04:29:34.835Z,3.60
2022-08-19T04:32:08.463Z,3.47
2022-08-19T04:34:36.748Z,3.33
2022-08-19T04:37:35.219Z,4.20
2022-08-19T04:40:23.694Z,4.68
2022-08-19T04:42:49.989Z,3.92
2022-08-19T04:45:17.534Z,3.83
2022-08-19T04:47:48.335Z,3.67
2022-08-19T04:50:25.583Z,3.85
2022-08-19T04:52:52.963Z,4.05
2022-08-19T04:55:19.493Z,4.03
2022-08-19T04:57:45.749Z,4.18
2022-08-19T05:00:12.940Z,4.07
2022-08-19T05:02:39.238Z,4.55
2022-08-19T05:05:06.804Z,5.15
2022-08-19T05:07:34.217Z,4.87
2022-08-19T05:10:00.514Z,4.20
2022-08-19T05:12:28.815Z,4.10
2022-08-19T05:14:57.172Z,4.15
2022-08-19T05:17:27.504Z,4.25
2022-08-19T05:20:13.874Z,4.15
2022-08-19T05:22:40.786Z,4.50
2022-08-19T05:25:13.498Z,4.18
2022-08-19T05:27:41.322Z,4.70
2022-08-19T05:30:08.652Z,5.10
2022-08-19T05:32:35.233Z,5.53
2022-08-19T05:35:01.531Z,6.32
2022-08-19T05:37:28.086Z,6.62
2022-08-19T05:39:56.415Z,7.12
2022-08-19T05:42:23.508Z,6.97
2022-08-19T05:44:50.037Z,6.32
2022-08-19T05:47:16.417Z,6.70
2022-08-19T05:49:43.022Z,6.20
2022-08-19T05:52:11.477Z,7.85
2022-08-19T05:54:40.697Z,8.55
2022-08-19T05:57:07.124Z,8.25
2022-08-19T05:59:35.943Z,7.10
2022-08-19T06:02:06.665Z,6.78
2022-08-19T06:04:32.975Z,6.65
2022-08-19T06:06:59.322Z,5.93
2022-08-19T06:09:25.680Z,5.45
2022-08-19T06:11:55.945Z,5.75
2022-08-19T06:14:27.800Z,8.43
2022-08-19T06:16:55.162Z,10.48
2022-08-19T06:19:22.596Z,9.38
2022-08-19T06:21:50.930Z,7.90
2022-08-19T06:24:20.227Z,7.20
2022-08-19T06:29:24.066Z,7.20
2022-08-19T06:31:53.099Z,5.70
2022-08-19T06:34:20.146Z,5.57
2022-08-19T06:36:48.261Z,6.43
2022-08-19T06:39:22.452Z,6.40
2022-08-19T06:41:53.340Z,4.60
2022-08-19T06:44:20.872Z,4.47
2022-08-19T06:46:54.948Z,4.87
2022-08-19T06:49:22.204Z,7.05
2022-08-19T06:51:49.052Z,8.13
2022-08-19T06:54:19.437Z,9.77
2022-08-19T06:56:46.175Z,15.57
2022-08-19T06:59:15.087Z,20.70
2022-08-19T07:01:44.691Z,32.05
2022-08-19T07:04:12.164Z,29.92
2022-08-19T07:06:43.885Z,19.92
2022-08-19T07:09:14.159Z,26.25
2022-08-19T07:11:45.258Z,60.38
2022-08-19T07:14:19.306Z,29.27
2022-08-19T07:16:50.374Z,29.67
2022-08-19T07:19:18.705Z,17.77
2022-08-19T07:21:46.774Z,9.80
2022-08-19T07:24:13.152Z,12.48
2022-08-19T07:26:42.229Z,8.70
2022-08-19T07:29:08.871Z,8.40
2022-08-19T07:31:38.128Z,6.78
2022-08-19T07:34:09.094Z,11.98
2022-08-19T07:36:37.650Z,17.62
2022-08-19T07:39:06.834Z,21.83
2022-08-19T07:41:34.717Z,23.55
2022-08-19T07:44:04.023Z,22.65
2022-08-19T07:46:53.196Z,23.30
2022-08-19T07:49:20.962Z,23.87
2022-08-19T07:51:49.386Z,25.35
2022-08-19T07:54:16.448Z,22.58
2022-08-19T07:56:42.785Z,24.67
2022-08-19T07:59:09.717Z,26.70
2022-08-19T08:01:36.194Z,27.30
2022-08-19T08:04:27.240Z,28.73
2022-08-19T08:07:12.516Z,15.82
2022-08-19T08:09:40.561Z,9.02
2022-08-19T08:12:33.034Z,11.07
2022-08-19T08:15:04.810Z,17.02
2022-08-19T08:17:49.056Z,30.73
2022-08-19T08:20:17.045Z,39.15
2022-08-19T08:23:03.020Z,50.33
2022-08-19T08:25:32.495Z,47.75
2022-08-19T08:28:01.155Z,42.88
2022-08-19T08:30:31.061Z,50.22
2022-08-19T08:32:59.163Z,74.10
2022-08-19T08:35:25.645Z,96.00
2022-08-19T08:37:54.115Z,76.07
2022-08-19T08:43:53.419Z,66.07
2022-08-19T08:46:31.327Z,68.47
2022-08-19T08:49:09.611Z,39.65
2022-08-19T08:51:47.972Z,33.05
2022-08-19T08:54:16.021Z,9.93
2022-08-19T08:56:43.350Z,20.95
2022-08-19T09:01:02.655Z,25.45
2022-08-19T09:03:31.723Z,27.25
2022-08-19T09:06:18.959Z,16.15
2022-08-19T09:09:11.754Z,8.55
2022-08-19T09:15:01.919Z,27.60
2022-08-19T09:17:33.794Z,84.87
2022-08-19T09:20:09.950Z,93.50
2022-08-19T09:22:37.395Z,100.18
2022-08-19T09:25:05.424Z,91.72
2022-08-19T09:27:42.406Z,36.92
2022-08-19T09:30:24.860Z,22.20
2022-08-19T09:32:53.273Z,32.45
2022-08-19T09:35:23.353Z,14.63
2022-08-19T09:37:50.769Z,11.30
2022-08-19T09:40:24.880Z,8.05
2022-08-19T09:42:52.674Z,7.95
2022-08-19T09:45:23.476Z,7.37
2022-08-19T09:47:51.605Z,7.10
2022-08-19T09:50:19.277Z,7.90
2022-08-19T09:52:57.169Z,10.30
2022-08-19T09:55:24.603Z,20.12
2022-08-19T09:58:00.624Z,20.20
2022-08-19T10:00:27.309Z,27.17
2022-08-19T10:02:53.676Z,28.25
2022-08-19T10:05:39.125Z,21.70
2022-08-19T10:08:13.060Z,23.38
2022-08-19T10:10:46.971Z,24.00
2022-08-19T10:13:15.544Z,23.15
2022-08-19T10:15:47.149Z,26.10
2022-08-19T10:18:17.188Z,25.77
2022-08-19T10:20:46.181Z,28.62
2022-08-19T10:23:18.069Z,27.05
2022-08-19T10:25:44.460Z,23.45
2022-08-19T10:28:12.340Z,22.60
2022-08-19T10:30:39.915Z,23.10
2022-08-19T10:33:10.798Z,22.87
2022-08-19T10:35:42.593Z,23.62
2022-08-19T10:38:31.455Z,20.73
2022-08-19T10:40:58.950Z,14.13
2022-08-19T10:43:25.470Z,16.25
2022-08-19T10:45:59.576Z,12.10
2022-08-19T10:48:27.119Z,10.60
2022-08-19T10:51:23.014Z,11.73
2022-08-19T10:53:51.142Z,11.88
2022-08-19T10:56:36.335Z,10.70
2022-08-19T10:59:03.785Z,11.25
2022-08-19T11:01:31.512Z,12.43
2022-08-19T11:03:58.277Z,12.18
2022-08-19T11:06:30.285Z,11.57
2022-08-19T11:08:56.710Z,10.70
2022-08-19T11:11:23.254Z,10.65
2022-08-19T11:13:50.419Z,15.38
2022-08-19T11:16:19.806Z,18.05
2022-08-19T11:18:50.991Z,12.82
2022-08-19T11:21:20.009Z,16.05
2022-08-19T11:23:48.038Z,13.30
2022-08-19T11:26:15.830Z,16.55
2022-08-19T11:28:42.155Z,15.35
2022-08-19T11:31:17.253Z,15.32
2022-08-19T11:33:47.236Z,21.30
2022-08-19T11:36:15.082Z,22.15
2022-08-19T11:38:41.976Z,22.02
2022-08-19T11:41:08.831Z,19.92
2022-08-19T11:43:37.658Z,20.60
2022-08-19T11:46:08.448Z,19.42
2022-08-19T11:48:35.063Z,22.15
2022-08-19T11:51:05.670Z,19.30
2022-08-19T11:53:32.247Z,33.92
2022-08-19T11:55:58.577Z,31.77
2022-08-19T11:58:25.517Z,33.90
2022-08-19T12:00:52.379Z,36.53
2022-08-19T12:03:19.866Z,37.08
2022-08-19T12:05:46.173Z,37.47
2022-08-19T12:08:13.816Z,33.05
2022-08-19T12:10:42.808Z,34.55
2022-08-19T12:13:14.469Z,36.28
2022-08-19T12:15:41.431Z,31.35
2022-08-19T12:18:08.602Z,30.83
2022-08-19T12:20:36.649Z,29.60
2022-08-19T12:23:03.960Z,22.40
2022-08-19T12:25:31.336Z,25.62
2022-08-19T12:28:00.502Z,32.88
2022-08-19T12:30:27.492Z,25.27
2022-08-19T12:32:55.183Z,25.62
2022-08-19T12:35:22.425Z,22.62
2022-08-19T12:37:57.408Z,22.27
2022-08-19T12:40:24.091Z,22.42
2022-08-19T12:42:53.888Z,19.30
2022-08-19T12:45:20.173Z,18.17
2022-08-19T12:47:48.648Z,16.25
2022-08-19T12:50:16.146Z,18.73
2022-08-19T12:52:42.714Z,16.35
2022-08-19T12:55:09.702Z,15.13
2022-08-19T12:57:36.279Z,14.13
2022-08-19T13:00:14.544Z,13.85
2022-08-19T13:02:42.327Z,14.70
2022-08-19T13:05:10.453Z,14.93
2022-08-19T13:07:38.932Z,15.70
2022-08-19T13:10:06.886Z,16.27
2022-08-19T13:12:33.710Z,16.90
2022-08-19T13:15:00.325Z,15.70
2022-08-19T13:17:27.771Z,16.60
2022-08-19T13:19:54.039Z,20.27
2022-08-19T13:22:20.742Z,23.00
2022-08-19T13:24:47.535Z,29.25
2022-08-19T13:27:14.821Z,23.12
2022-08-19T13:30:00.927Z,16.00
2022-08-19T13:32:45.509Z,18.40
2022-08-19T13:35:16.233Z,15.73
2022-08-19T13:37:44.113Z,16.90
2022-08-19T13:40:19.532Z,17.48
2022-08-19T13:42:47.897Z,19.20
2022-08-19T13:45:15.559Z,18.25
2022-08-19T13:47:45.926Z,16.87
2022-08-19T13:50:13.399Z,14.05
2022-08-19T13:52:40.100Z,15.98
2022-08-19T13:55:07.665Z,18.20
2022-08-19T13:57:33.992Z,15.52
2022-08-19T14:00:00.367Z,12.65
2022-08-19T14:02:27.353Z,12.35
2022-08-19T14:04:53.763Z,15.32
2022-08-19T14:07:20.826Z,29.63
2022-08-19T14:09:47.171Z,42.83
2022-08-19T14:12:28.546Z,34.75
2022-08-19T14:14:55.129Z,39.58
2022-08-19T14:17:21.980Z,39.47
2022-08-19T14:19:48.757Z,40.05
2022-08-19T14:22:15.037Z,49.13
2022-08-19T14:24:48.837Z,47.62
2022-08-19T14:27:15.552Z,49.05
2022-08-19T14:29:41.787Z,46.50
2022-08-19T14:32:08.091Z,48.00
2022-08-19T14:34:38.153Z,43.50
2022-08-19T14:37:06.447Z,41.65
2022-08-19T14:39:32.721Z,44.05
2022-08-19T14:41:59.685Z,45.63
2022-08-19T14:44:27.550Z,46.78
2022-08-19T14:46:54.287Z,43.90
2022-08-19T14:49:21.713Z,32.80
2022-08-19T14:52:01.370Z,27.23
2022-08-19T14:54:27.713Z,13.68
2022-08-19T14:56:56.934Z,11.77
2022-08-19T14:59:23.852Z,9.68
2022-08-19T15:01:50.657Z,10.15
2022-08-19T15:04:17.238Z,9.40
2022-08-19T15:06:43.757Z,8.88
2022-08-19T15:09:10.474Z,9.80
2022-08-19T15:11:37.581Z,10.52
2022-08-19T15:14:05.665Z,10.30
2022-08-19T15:16:32.030Z,8.38
2022-08-19T15:19:00.052Z,7.10
2022-08-19T15:21:27.513Z,5.43
2022-08-19T15:23:55.824Z,5.75
2022-08-19T15:26:22.075Z,5.70
2022-08-19T15:28:48.691Z,7.05
2022-08-19T15:31:25.356Z,6.68
2022-08-19T15:33:57.516Z,6.18
2022-08-19T15:36:25.535Z,7.37
2022-08-19T15:38:52.864Z,8.55
2022-08-19T15:41:23.878Z,14.80
2022-08-19T15:43:52.051Z,15.18
2022-08-19T15:46:20.797Z,12.65
2022-08-19T15:48:54.722Z,12.65
2022-08-19T15:51:24.490Z,14.02
2022-08-19T15:53:51.038Z,15.30
2022-08-19T15:56:18.802Z,15.93
2022-08-19T15:59:03.704Z,18.75
2022-08-19T16:01:48.508Z,13.35
2022-08-19T16:04:34.378Z,8.85
2022-08-19T16:07:01.140Z,8.90
2022-08-19T16:09:29.646Z,10.40
2022-08-19T16:12:01.176Z,14.73
2022-08-19T16:14:29.153Z,16.87
2022-08-19T16:16:56.319Z,20.80
2022-08-19T16:19:23.026Z,20.67
2022-08-19T16:21:51.797Z,14.93
2022-08-19T16:24:21.327Z,9.73
2022-08-19T16:26:47.890Z,6.85
2022-08-19T16:29:15.594Z,5.68
2022-08-19T16:32:00.600Z,5.05
2022-08-19T16:34:29.395Z,4.68
2022-08-19T16:36:55.624Z,7.03
2022-08-19T16:39:23.296Z,7.35
2022-08-19T16:41:50.531Z,8.50
2022-08-19T16:44:18.166Z,9.15
2022-08-19T16:46:46.372Z,12.00
2022-08-19T16:49:53.158Z,14.00
2022-08-19T16:52:27.466Z,12.52
2022-08-19T16:54:54.269Z,11.30
2022-08-19T16:57:23.283Z,10.55
2022-08-19T16:59:51.885Z,10.75
2022-08-19T17:02:19.529Z,10.57
2022-08-19T17:04:58.339Z,10.02
2022-08-19T17:07:29.263Z,11.15
2022-08-19T17:10:00.903Z,10.88
2022-08-19T17:12:31.824Z,11.80
2022-08-19T17:15:00.329Z,12.25
2022-08-19T17:17:29.284Z,12.02
2022-08-19T17:19:58.649Z,12.73
2022-08-19T17:22:25.177Z,14.23
2022-08-19T17:24:51.533Z,15.98
2022-08-19T17:27:20.379Z,15.30
2022-08-19T17:29:47.336Z,15.43
2022-08-19T17:32:15.183Z,14.50
2022-08-19T17:34:41.850Z,12.05
2022-08-19T17:37:08.356Z,9.57
2022-08-19T17:39:39.709Z,9.95
2022-08-19T17:42:08.114Z,9.38
2022-08-19T17:44:36.086Z,9.40
2022-08-19T17:47:03.559Z,8.90
2022-08-19T17:49:29.832Z,9.45
2022-08-19T17:51:59.235Z,8.65
2022-08-19T17:54:25.628Z,9.15
2022-08-19T17:57:00.908Z,8.40
2022-08-19T17:59:30.043Z,7.55
2022-08-19T18:01:56.873Z,6.57
2022-08-19T18:04:24.910Z,5.85
2022-08-19T18:06:55.135Z,5.57
2022-08-19T18:09:41.983Z,6.45
2022-08-19T18:12:13.949Z,7.75
2022-08-19T18:14:42.533Z,7.20
2022-08-19T18:17:12.436Z,6.18
2022-08-19T18:19:41.924Z,5.50
2022-08-19T18:22:13.355Z,5.30
2022-08-19T18:24:41.562Z,5.28
2022-08-19T18:27:10.979Z,5.43
2022-08-19T18:29:39.707Z,6.40
2022-08-19T18:32:13.201Z,6.43
2022-08-19T18:34:41.268Z,6.37
2022-08-19T18:37:07.674Z,5.20
2022-08-19T18:39:54.294Z,4.90
2022-08-19T18:42:40.006Z,4.53
2022-08-19T18:46:41.802Z,6.20
2022-08-19T18:49:10.332Z,8.98
2022-08-19T18:51:37.527Z,10.85
2022-08-19T18:54:04.962Z,9.30
2022-08-19T18:56:31.924Z,9.32
2022-08-19T18:58:59.585Z,9.57
2022-08-19T19:01:32.052Z,8.48
2022-08-19T19:04:00.607Z,7.97
2022-08-19T19:06:31.541Z,8.00
2022-08-19T19:08:58.380Z,7.43
2022-08-19T19:11:36.715Z,6.87
2022-08-19T19:14:32.806Z,6.90
2022-08-19T19:17:16.951Z,7.15
2022-08-19T19:19:47.021Z,7.20
2022-08-19T19:22:16.846Z,6.40
2022-08-19T19:24:44.248Z,6.30
2022-08-19T19:27:14.271Z,6.30
2022-08-19T19:29:42.369Z,6.70
2022-08-19T19:32:45.735Z,6.30
2022-08-19T19:35:12.136Z,5.70
2022-08-19T19:37:43.231Z,5.20
2022-08-19T19:40:10.690Z,5.28
2022-08-19T19:42:40.419Z,5.07
2022-08-19T19:45:10.317Z,5.22
2022-08-19T19:47:46.748Z,5.50
2022-08-19T19:50:16.808Z,5.28
2022-08-19T19:52:47.758Z,5.70
2022-08-19T19:55:18.152Z,5.85
2022-08-19T19:57:52.889Z,5.90
2022-08-19T20:00:19.647Z,5.85
2022-08-19T20:02:50.965Z,5.60
2022-08-19T20:05:21.057Z,5.15
2022-08-19T20:08:06.807Z,5.53
2022-08-19T20:10:33.265Z,5.25
2022-08-19T20:13:04.600Z,6.12
2022-08-19T20:15:33.419Z,5.53
2022-08-19T20:18:00.595Z,4.85
2022-08-19T20:20:27.347Z,4.85
2022-08-19T20:22:53.677Z,5.22
2022-08-19T20:25:22.051Z,6.35
2022-08-19T20:27:49.725Z,6.65
2022-08-19T20:30:19.132Z,7.00
2022-08-19T20:32:46.662Z,6.00
2022-08-19T20:35:14.488Z,6.55
2022-08-19T20:37:42.821Z,5.10
2022-08-19T20:40:10.636Z,4.18
2022-08-19T20:42:39.817Z,4.15
2022-08-19T20:45:29.441Z,4.80
2022-08-19T20:48:02.457Z,4.80
2022-08-19T20:50:29.873Z,5.00
2022-08-19T20:52:58.110Z,5.12
2022-08-19T20:55:28.238Z,4.75
2022-08-19T20:57:56.726Z,4.05
2022-08-19T21:00:23.726Z,3.42
2022-08-19T21:02:50.787Z,3.28
2022-08-19T21:05:17.451Z,3.30
2022-08-19T21:07:44.068Z,3.97
2022-08-19T21:10:11.035Z,3.80
2022-08-19T21:12:38.466Z,3.83
2022-08-19T21:15:06.984Z,3.87
2022-08-19T21:17:34.005Z,3.80
2022-08-19T21:20:00.547Z,3.83
2022-08-19T21:22:27.060Z,3.72
2022-08-19T21:24:53.441Z,4.03
2022-08-19T21:27:19.789Z,4.10
2022-08-19T21:29:46.216Z,4.55
2022-08-19T21:32:14.080Z,4.75
2022-08-19T21:34:43.676Z,4.57
2022-08-19T21:37:19.002Z,3.97
2022-08-19T21:39:52.532Z,4.57
2022-08-19T21:42:19.129Z,4.95
2022-08-19T21:44:46.097Z,5.93
2022-08-19T21:47:13.034Z,6.75
2022-08-19T21:49:39.427Z,7.07
2022-08-19T21:52:06.943Z,6.82
2022-08-19T21:54:37.618Z,6.57
2022-08-19T21:57:10.221Z,6.30
2022-08-19T21:59:44.199Z,6.00
2022-08-19T22:02:22.552Z,6.18
2022-08-19T22:04:51.124Z,6.00
2022-08-19T22:07:18.511Z,5.05
2022-08-19T22:09:45.802Z,5.32
2022-08-19T22:12:22.278Z,5.62
2022-08-19T22:14:49.520Z,5.43
2022-08-19T22:17:16.974Z,5.50
2022-08-19T22:19:44.026Z,5.85
2022-08-19T22:22:10.566Z,6.12
2022-08-19T22:24:36.921Z,6.22
2022-08-19T22:27:05.658Z,6.75
2022-08-19T22:29:36.107Z,6.68
2022-08-19T22:32:23.012Z,6.32
2022-08-19T22:34:56.025Z,5.93
2022-08-19T22:37:22.887Z,6.47
2022-08-19T22:39:50.796Z,6.03
2022-08-19T22:42:20.553Z,5.95
2022-08-19T22:44:47.211Z,5.90
2022-08-19T22:47:13.484Z,6.03
2022-08-19T22:49:43.809Z,6.12
2022-08-19T22:52:19.262Z,5.78
2022-08-19T22:54:46.859Z,5.68
2022-08-19T22:57:13.822Z,5.10
2022-08-19T22:59:40.136Z,4.20
2022-08-19T23:02:06.752Z,4.32
2022-08-19T23:04:33.153Z,4.00
2022-08-19T23:06:59.575Z,3.92
2022-08-19T23:09:25.894Z,4.05
2022-08-19T23:11:57.146Z,4.25
2022-08-19T23:14:23.364Z,3.90
2022-08-19T23:16:51.374Z,3.60
2022-08-19T23:19:19.292Z,3.20
2022-08-19T23:21:45.571Z,3.10
2022-08-19T23:24:12.236Z,3.03
2022-08-19T23:30:25.168Z,3.50
2022-08-19T23:33:46.769Z,3.40
2022-08-19T23:36:18.201Z,3.30
2022-08-19T23:38:45.703Z,4.30
2022-08-19T23:41:12.963Z,4.93
2022-08-19T23:43:41.443Z,4.70
2022-08-19T23:46:10.721Z,4.70
2022-08-19T23:48:37.830Z,4.80
2022-08-19T23:51:08.585Z,4.05
2022-08-19T23:53:36.368Z,3.90
2022-08-19T23:56:04.313Z,4.10
2022-08-19T23:58:31.634Z,4.20
